Stansbury Park, UT

7:07 PM MDT on September 17, 2014 (GMT -0600)
OverLake | Change Station
CLOSE
Current Station
Personal Weather Station
Location: OverLake, UT
Elevation: 4711 ft
Nearby Weather Stations

Elev 4711 ft 40.56 °N, 112.31 °W | Updated 10 minutes ago

Clear
Clear
86.5 °F
Feels Like 84 °F
N
2.2
Wind Variable Wind from NW
Gusts 3.8 mph

Today
High -- | Low -- °F
--% Chance of Precip.
Yesterday
High -- | Low -- °F
Precip. -- in
7:12 AM 7:34 PM
Waning Crescent, 31% visible
Pressure 29.68 in
Visibility 10.0 miles
Clouds Few 11000 ft
Few 18000 ft
Heat Index 84 °F
Dew Point 49 °F
Humidity 27%
Rainfall 0.00 in
Snow Depth 1 in , 0 in , 0 in
UV 0 out of 12
Pollen 5.20 out of 12
PM2.5 Good
Flu Activity Not available.
METAR KSLC 180053Z 36008KT 10SM FEW110 FEW180 31/06 A2986 RMK AO2 SLP050 T03110056

More Conditions Fewer Conditions

Pressure 29.68 in
Visibility 10.0 miles
Clouds Few 11000 ft
Few 18000 ft
Heat Index 84 °F
Dew Point 49 °F
Humidity 27%
Rainfall 0.00 in
Snow Depth 1 in , 0 in , 0 in
UV 0 out of 12
Pollen 5.20 out of 12
PM2.5 Good
Flu Activity Not available.
METAR KSLC 180053Z 36008KT 10SM FEW110 FEW180 31/06 A2986 RMK AO2 SLP050 T03110056

More Conditions Fewer Conditions

10-Day Weather Forecast

Almanac

Astronomy

Sep. 17, 2014 Rise Set
Actual Time 7:12 AM MDT 7:34 PM MDT
Civil Twilight 6:44 AM MDT 8:02 PM MDT
Nautical Twilight 6:12 AM MDT 8:34 PM MDT
Astronomical Twilight 5:39 AM MDT 9:06 PM MDT
Moon 1:14 AM MDT (9/17) 3:48 PM MDT (9/17)
Length of Visible Light 13h 17m
Length of Day
12h 22m
Tomorrow will be 2m 39s shorter.
Waning Crescent, 31% of the Moon is Illuminated
Today
Waning Crescent
Sep 24
New
Oct 1
First Quarter
Oct 8
Full
Oct 15
Last Quarter

Today's Extremes

State Highs State Lows

Community

WunderPhotos

Upload Photos

1,754,241 photos uploaded!

Nearby

Air Quality

  Air Quality AQ Index Pollutant
Yesterday Good
OZONE
Yesterday Good
PM2.5
Current Good
PM2.5
Wednesday Good
OZONE
Thursday Good
OZONE
Friday Good
OZONE

Snow Depth

Station Depth Elevation
Lakefork #1 1 in 10100 ft
Hewinta 0 in 9500 ft
Temple Fork 0 in 7406 ft
Brown Duck 0 in 10600 ft
King's Cabin 0 in 8730 ft

Earthquake Activity

City Distance Mag. Time & Date
No recent earthquake activity has been reported nearby.
Minimum magnitude displayed is 2.5.

Coastal Water Temperatures

Place Temperature
No Stations Reporting

Nearby Weather Stations